Main page
METAR-TAF:

METAR-TAF

Airports :

Jumandy Airport

Tena, Ecuador

latitude: 01-03-35S, longitude: 77-35-00W, elevation: 376 m

Current weather observation

The report was made 38 minutes ago, at 21:00 UTC
Wind 7 kt from the West
Temperature 26°C
Humidity 79%
Pressure 1014 hPa
Visibility 10 km or more
Few clouds at a height of 1600 ft
Scattered clouds at a height of 2600 ft
Scattered clouds at a height of 10000 ft

METAR: SEJD 052100Z 27007KT 9999 FEW016 SCT026 SCT100 26/22 Q1014 RMK A2995

Time: 16:38 (21:38 UTC)


TAF: missing

Weather observations and forecasts of more than 4000 airports (METAR and TAF reports).

The available stations are represented by yellow and red dots on the map.

Hover mouse over dot to see the name of the station.

Then click to see weather observations and forecasts.

To change the map : click on the green buttons with a black cross to zoom in, on the green button with a dash to zoom out, or on the green arrows for adjacent maps.


METAR-TAF: